sensor_id;sensor_type;location;lat;lon;timestamp;temperature;humidity
46752;DHT22;32497;48.936;9.270;2022-08-21T00:02:50;15.80;77.10
46752;DHT22;32497;48.936;9.270;2022-08-21T00:07:52;15.80;77.60
46752;DHT22;32497;48.936;9.270;2022-08-21T00:12:55;15.70;78.70
46752;DHT22;32497;48.936;9.270;2022-08-21T00:17:56;15.70;79.30
46752;DHT22;32497;48.936;9.270;2022-08-21T00:22:57;15.70;79.60
46752;DHT22;32497;48.936;9.270;2022-08-21T00:28:00;15.70;80.60
46752;DHT22;32497;48.936;9.270;2022-08-21T00:33:02;15.60;80.60
46752;DHT22;32497;48.936;9.270;2022-08-21T00:38:05;15.50;82.00
46752;DHT22;32497;48.936;9.270;2022-08-21T00:43:09;15.40;82.60
46752;DHT22;32497;48.936;9.270;2022-08-21T00:48:11;15.50;83.50
46752;DHT22;32497;48.936;9.270;2022-08-21T00:53:13;15.50;83.80
46752;DHT22;32497;48.936;9.270;2022-08-21T00:58:16;15.40;83.90
46752;DHT22;32497;48.936;9.270;2022-08-21T01:03:20;15.40;84.00
46752;DHT22;32497;48.936;9.270;2022-08-21T01:08:22;15.30;84.10
46752;DHT22;32497;48.936;9.270;2022-08-21T01:13:26;15.20;84.20
46752;DHT22;32497;48.936;9.270;2022-08-21T01:18:28;15.10;84.60
46752;DHT22;32497;48.936;9.270;2022-08-21T01:23:31;14.80;85.00
46752;DHT22;32497;48.936;9.270;2022-08-21T01:28:35;14.80;85.00
46752;DHT22;32497;48.936;9.270;2022-08-21T01:33:38;14.80;85.50
46752;DHT22;32497;48.936;9.270;2022-08-21T01:38:40;14.80;85.10
46752;DHT22;32497;48.936;9.270;2022-08-21T01:43:42;14.90;85.00
46752;DHT22;32497;48.936;9.270;2022-08-21T01:48:43;14.90;85.20
46752;DHT22;32497;48.936;9.270;2022-08-21T01:53:47;14.80;85.80
46752;DHT22;32497;48.936;9.270;2022-08-21T01:58:48;14.70;86.50
46752;DHT22;32497;48.936;9.270;2022-08-21T02:03:49;14.70;86.80
46752;DHT22;32497;48.936;9.270;2022-08-21T02:08:52;14.70;87.00
46752;DHT22;32497;48.936;9.270;2022-08-21T02:13:53;14.70;86.90
46752;DHT22;32497;48.936;9.270;2022-08-21T02:18:54;14.80;86.90
46752;DHT22;32497;48.936;9.270;2022-08-21T02:23:56;14.80;86.80
46752;DHT22;32497;48.936;9.270;2022-08-21T02:28:57;14.80;86.80
46752;DHT22;32497;48.936;9.270;2022-08-21T02:33:58;14.90;86.80
46752;DHT22;32497;48.936;9.270;2022-08-21T02:39:01;14.80;86.60
46752;DHT22;32497;48.936;9.270;2022-08-21T02:44:02;14.70;86.60
46752;DHT22;32497;48.936;9.270;2022-08-21T02:49:03;14.60;86.80
46752;DHT22;32497;48.936;9.270;2022-08-21T02:54:06;14.50;87.00
46752;DHT22;32497;48.936;9.270;2022-08-21T02:59:07;14.40;87.10
46752;DHT22;32497;48.936;9.270;2022-08-21T03:04:08;14.40;87.20
46752;DHT22;32497;48.936;9.270;2022-08-21T03:09:10;14.30;87.40
46752;DHT22;32497;48.936;9.270;2022-08-21T03:14:12;14.10;87.30
46752;DHT22;32497;48.936;9.270;2022-08-21T03:19:13;13.90;87.90
46752;DHT22;32497;48.936;9.270;2022-08-21T03:24:16;13.70;88.10
46752;DHT22;32497;48.936;9.270;2022-08-21T03:29:17;13.70;88.30
46752;DHT22;32497;48.936;9.270;2022-08-21T03:34:18;13.80;87.90
46752;DHT22;32497;48.936;9.270;2022-08-21T03:39:20;13.70;87.90
46752;DHT22;32497;48.936;9.270;2022-08-21T03:44:21;13.90;87.90
46752;DHT22;32497;48.936;9.270;2022-08-21T03:49:22;13.90;87.50
46752;DHT22;32497;48.936;9.270;2022-08-21T03:54:25;13.70;87.00
46752;DHT22;32497;48.936;9.270;2022-08-21T03:59:26;13.60;87.10
46752;DHT22;32497;48.936;9.270;2022-08-21T04:04:28;13.40;87.60
46752;DHT22;32497;48.936;9.270;2022-08-21T04:09:30;13.40;87.50
46752;DHT22;32497;48.936;9.270;2022-08-21T04:14:31;13.40;87.80
46752;DHT22;32497;48.936;9.270;2022-08-21T04:19:32;13.30;87.80
46752;DHT22;32497;48.936;9.270;2022-08-21T04:24:35;13.30;88.20
46752;DHT22;32497;48.936;9.270;2022-08-21T04:29:36;13.30;88.70
46752;DHT22;32497;48.936;9.270;2022-08-21T04:34:37;13.30;88.40
46752;DHT22;32497;48.936;9.270;2022-08-21T04:39:39;13.30;88.70
46752;DHT22;32497;48.936;9.270;2022-08-21T04:44:41;13.30;88.90
46752;DHT22;32497;48.936;9.270;2022-08-21T04:49:42;13.40;88.80
46752;DHT22;32497;48.936;9.270;2022-08-21T04:54:45;13.50;88.70
46752;DHT22;32497;48.936;9.270;2022-08-21T04:59:49;13.50;88.70
46752;DHT22;32497;48.936;9.270;2022-08-21T05:04:52;13.60;88.80
46752;DHT22;32497;48.936;9.270;2022-08-21T05:09:56;13.70;88.80
46752;DHT22;32497;48.936;9.270;2022-08-21T05:14:57;13.70;88.50
46752;DHT22;32497;48.936;9.270;2022-08-21T05:19:58;13.70;88.30
46752;DHT22;32497;48.936;9.270;2022-08-21T05:25:00;13.60;88.40
46752;DHT22;32497;48.936;9.270;2022-08-21T05:30:03;13.50;88.30
46752;DHT22;32497;48.936;9.270;2022-08-21T05:35:06;13.50;88.10
46752;DHT22;32497;48.936;9.270;2022-08-21T05:40:10;13.50;88.30
46752;DHT22;32497;48.936;9.270;2022-08-21T05:45:11;13.60;88.10
46752;DHT22;32497;48.936;9.270;2022-08-21T05:50:12;13.80;87.60
46752;DHT22;32497;48.936;9.270;2022-08-21T05:55:14;14.20;87.40
46752;DHT22;32497;48.936;9.270;2022-08-21T06:00:16;14.60;86.30
46752;DHT22;32497;48.936;9.270;2022-08-21T06:05:17;14.90;85.80
46752;DHT22;32497;48.936;9.270;2022-08-21T06:10:20;15.10;85.30
46752;DHT22;32497;48.936;9.270;2022-08-21T06:15:21;15.20;84.40
46752;DHT22;32497;48.936;9.270;2022-08-21T06:20:23;15.30;84.40
46752;DHT22;32497;48.936;9.270;2022-08-21T06:25:25;15.50;83.70
46752;DHT22;32497;48.936;9.270;2022-08-21T06:30:26;15.60;82.20
46752;DHT22;32497;48.936;9.270;2022-08-21T06:35:27;15.80;82.10
46752;DHT22;32497;48.936;9.270;2022-08-21T06:40:30;16.20;82.70
46752;DHT22;32497;48.936;9.270;2022-08-21T06:45:31;16.40;80.60
46752;DHT22;32497;48.936;9.270;2022-08-21T06:50:32;16.60;80.10
46752;DHT22;32497;48.936;9.270;2022-08-21T06:55:34;16.70;80.20
46752;DHT22;32497;48.936;9.270;2022-08-21T07:00:38;17.00;79.60
46752;DHT22;32497;48.936;9.270;2022-08-21T07:05:39;17.20;78.70
46752;DHT22;32497;48.936;9.270;2022-08-21T07:10:42;17.30;78.80
46752;DHT22;32497;48.936;9.270;2022-08-21T07:15:43;17.50;78.40
46752;DHT22;32497;48.936;9.270;2022-08-21T07:20:44;17.60;78.30
46752;DHT22;32497;48.936;9.270;2022-08-21T07:25:47;17.70;78.20
46752;DHT22;32497;48.936;9.270;2022-08-21T07:30:51;18.00;75.10
46752;DHT22;32497;48.936;9.270;2022-08-21T07:35:52;18.20;76.30
46752;DHT22;32497;48.936;9.270;2022-08-21T07:40:56;18.50;74.50
46752;DHT22;32497;48.936;9.270;2022-08-21T07:45:57;18.70;72.80
46752;DHT22;32497;48.936;9.270;2022-08-21T07:50:58;19.10;71.00
46752;DHT22;32497;48.936;9.270;2022-08-21T07:56:05;19.40;67.90
46752;DHT22;32497;48.936;9.270;2022-08-21T08:01:06;19.20;70.40
46752;DHT22;32497;48.936;9.270;2022-08-21T08:06:08;19.50;69.40
46752;DHT22;32497;48.936;9.270;2022-08-21T08:11:11;19.60;69.00
46752;DHT22;32497;48.936;9.270;2022-08-21T08:16:12;19.90;65.00
46752;DHT22;32497;48.936;9.270;2022-08-21T08:21:14;19.70;65.10
46752;DHT22;32497;48.936;9.270;2022-08-21T08:26:16;20.20;66.30
46752;DHT22;32497;48.936;9.270;2022-08-21T08:31:17;20.50;64.20
46752;DHT22;32497;48.936;9.270;2022-08-21T08:36:18;20.80;62.20
46752;DHT22;32497;48.936;9.270;2022-08-21T08:41:21;20.90;59.00
46752;DHT22;32497;48.936;9.270;2022-08-21T08:46:28;21.20;61.90
46752;DHT22;32497;48.936;9.270;2022-08-21T08:51:39;21.40;59.40
46752;DHT22;32497;48.936;9.270;2022-08-21T08:56:43;21.30;58.50
46752;DHT22;32497;48.936;9.270;2022-08-21T09:01:44;21.50;60.00
46752;DHT22;32497;48.936;9.270;2022-08-21T09:07:01;21.60;59.00
46752;DHT22;32497;48.936;9.270;2022-08-21T09:12:12;21.70;56.00
46752;DHT22;32497;48.936;9.270;2022-08-21T09:17:27;21.90;55.50
46752;DHT22;32497;48.936;9.270;2022-08-21T09:22:40;22.40;53.90
46752;DHT22;32497;48.936;9.270;2022-08-21T09:27:45;22.80;55.40
46752;DHT22;32497;48.936;9.270;2022-08-21T09:32:46;23.10;53.20
46752;DHT22;32497;48.936;9.270;2022-08-21T09:37:50;23.10;53.60
46752;DHT22;32497;48.936;9.270;2022-08-21T09:42:58;22.90;52.90
46752;DHT22;32497;48.936;9.270;2022-08-21T09:48:11;23.40;53.10
46752;DHT22;32497;48.936;9.270;2022-08-21T09:53:18;23.70;52.30
46752;DHT22;32497;48.936;9.270;2022-08-21T09:58:21;24.20;50.20
46752;DHT22;32497;48.936;9.270;2022-08-21T10:03:30;24.20;48.20
46752;DHT22;32497;48.936;9.270;2022-08-21T10:08:33;24.00;48.10
46752;DHT22;32497;48.936;9.270;2022-08-21T10:13:48;23.80;46.90
46752;DHT22;32497;48.936;9.270;2022-08-21T10:19:02;24.50;46.30
46752;DHT22;32497;48.936;9.270;2022-08-21T10:24:11;24.70;46.50
46752;DHT22;32497;48.936;9.270;2022-08-21T10:29:28;24.80;46.10
46752;DHT22;32497;48.936;9.270;2022-08-21T10:34:38;25.10;43.60
46752;DHT22;32497;48.936;9.270;2022-08-21T10:39:52;25.50;42.00
46752;DHT22;32497;48.936;9.270;2022-08-21T10:45:11;25.70;44.00
46752;DHT22;32497;48.936;9.270;2022-08-21T10:50:22;26.30;41.60
46752;DHT22;32497;48.936;9.270;2022-08-21T10:55:31;26.70;39.40
46752;DHT22;32497;48.936;9.270;2022-08-21T11:00:39;26.40;40.50
46752;DHT22;32497;48.936;9.270;2022-08-21T11:05:45;26.60;37.10
46752;DHT22;32497;48.936;9.270;2022-08-21T11:10:50;26.80;37.00
46752;DHT22;32497;48.936;9.270;2022-08-21T11:16:04;26.80;38.10
46752;DHT22;32497;48.936;9.270;2022-08-21T11:21:14;27.70;37.40
46752;DHT22;32497;48.936;9.270;2022-08-21T11:26:22;27.70;37.80
46752;DHT22;32497;48.936;9.270;2022-08-21T11:31:38;27.50;37.70
46752;DHT22;32497;48.936;9.270;2022-08-21T11:37:01;27.60;37.90
46752;DHT22;32497;48.936;9.270;2022-08-21T11:42:08;28.30;37.60
46752;DHT22;32497;48.936;9.270;2022-08-21T11:47:16;28.10;34.60
46752;DHT22;32497;48.936;9.270;2022-08-21T11:52:22;28.20;35.50
46752;DHT22;32497;48.936;9.270;2022-08-21T11:57:30;28.00;37.10
46752;DHT22;32497;48.936;9.270;2022-08-21T12:02:46;28.30;36.30
46752;DHT22;32497;48.936;9.270;2022-08-21T12:08:01;29.00;36.60
46752;DHT22;32497;48.936;9.270;2022-08-21T12:13:11;29.40;32.60
46752;DHT22;32497;48.936;9.270;2022-08-21T12:18:28;29.30;34.00
46752;DHT22;32497;48.936;9.270;2022-08-21T12:23:32;29.60;31.20
46752;DHT22;32497;48.936;9.270;2022-08-21T12:28:34;29.40;30.70
46752;DHT22;32497;48.936;9.270;2022-08-21T12:33:38;29.10;32.30
46752;DHT22;32497;48.936;9.270;2022-08-21T12:38:45;29.40;33.60
46752;DHT22;32497;48.936;9.270;2022-08-21T12:43:54;28.80;32.10
46752;DHT22;32497;48.936;9.270;2022-08-21T12:49:00;29.10;33.60
46752;DHT22;32497;48.936;9.270;2022-08-21T12:54:03;29.10;31.60
46752;DHT22;32497;48.936;9.270;2022-08-21T12:59:06;29.30;31.10
46752;DHT22;32497;48.936;9.270;2022-08-21T13:04:12;29.50;30.80
46752;DHT22;32497;48.936;9.270;2022-08-21T13:09:16;29.70;29.30
46752;DHT22;32497;48.936;9.270;2022-08-21T13:14:24;29.40;30.90
46752;DHT22;32497;48.936;9.270;2022-08-21T13:19:27;29.90;30.70
46752;DHT22;32497;48.936;9.270;2022-08-21T13:24:30;29.90;30.90
46752;DHT22;32497;48.936;9.270;2022-08-21T13:29:33;30.70;27.80
46752;DHT22;32497;48.936;9.270;2022-08-21T13:34:37;29.00;30.60
46752;DHT22;32497;48.936;9.270;2022-08-21T13:39:38;29.20;28.60
46752;DHT22;32497;48.936;9.270;2022-08-21T13:44:41;29.70;28.70
46752;DHT22;32497;48.936;9.270;2022-08-21T13:49:46;30.50;28.80
46752;DHT22;32497;48.936;9.270;2022-08-21T13:54:53;30.70;28.60
46752;DHT22;32497;48.936;9.270;2022-08-21T14:00:11;31.00;28.60
46752;DHT22;32497;48.936;9.270;2022-08-21T14:05:26;31.00;24.90
46752;DHT22;32497;48.936;9.270;2022-08-21T14:10:28;30.70;28.80
46752;DHT22;32497;48.936;9.270;2022-08-21T14:15:32;31.30;25.90
46752;DHT22;32497;48.936;9.270;2022-08-21T14:20:36;30.90;27.50
46752;DHT22;32497;48.936;9.270;2022-08-21T14:25:40;31.50;26.10
46752;DHT22;32497;48.936;9.270;2022-08-21T14:30:43;31.50;27.60
46752;DHT22;32497;48.936;9.270;2022-08-21T14:35:46;31.50;26.00
46752;DHT22;32497;48.936;9.270;2022-08-21T14:40:49;31.30;26.80
46752;DHT22;32497;48.936;9.270;2022-08-21T14:45:51;31.90;30.20
46752;DHT22;32497;48.936;9.270;2022-08-21T14:50:53;32.50;29.30
46752;DHT22;32497;48.936;9.270;2022-08-21T14:55:54;32.90;28.70
46752;DHT22;32497;48.936;9.270;2022-08-21T15:00:55;33.00;25.60
46752;DHT22;32497;48.936;9.270;2022-08-21T15:05:58;32.90;28.50
46752;DHT22;32497;48.936;9.270;2022-08-21T15:11:00;32.00;26.00
46752;DHT22;32497;48.936;9.270;2022-08-21T15:16:02;32.40;28.00
46752;DHT22;32497;48.936;9.270;2022-08-21T15:21:05;32.00;28.70
46752;DHT22;32497;48.936;9.270;2022-08-21T15:26:06;31.80;30.10
46752;DHT22;32497;48.936;9.270;2022-08-21T15:31:11;31.70;30.70
46752;DHT22;32497;48.936;9.270;2022-08-21T15:36:14;31.80;29.80
46752;DHT22;32497;48.936;9.270;2022-08-21T15:41:15;31.20;26.90
46752;DHT22;32497;48.936;9.270;2022-08-21T15:46:19;31.10;25.80
46752;DHT22;32497;48.936;9.270;2022-08-21T15:51:21;31.30;30.10
46752;DHT22;32497;48.936;9.270;2022-08-21T15:56:24;31.00;28.30
46752;DHT22;32497;48.936;9.270;2022-08-21T16:01:26;30.70;28.20
46752;DHT22;32497;48.936;9.270;2022-08-21T16:06:29;30.90;30.30
46752;DHT22;32497;48.936;9.270;2022-08-21T16:11:30;30.60;32.40
46752;DHT22;32497;48.936;9.270;2022-08-21T16:16:33;30.40;28.80
46752;DHT22;32497;48.936;9.270;2022-08-21T16:21:36;30.10;33.70
46752;DHT22;32497;48.936;9.270;2022-08-21T16:26:37;29.70;32.90
46752;DHT22;32497;48.936;9.270;2022-08-21T16:31:39;28.70;34.50
46752;DHT22;32497;48.936;9.270;2022-08-21T16:36:41;28.10;35.20
46752;DHT22;32497;48.936;9.270;2022-08-21T16:41:42;27.80;34.40
46752;DHT22;32497;48.936;9.270;2022-08-21T16:46:43;27.20;36.60
46752;DHT22;32497;48.936;9.270;2022-08-21T16:51:46;27.00;35.80
46752;DHT22;32497;48.936;9.270;2022-08-21T16:56:47;26.70;36.20
46752;DHT22;32497;48.936;9.270;2022-08-21T17:01:48;26.40;36.50
46752;DHT22;32497;48.936;9.270;2022-08-21T17:06:51;26.30;37.60
46752;DHT22;32497;48.936;9.270;2022-08-21T17:11:52;26.20;36.90
46752;DHT22;32497;48.936;9.270;2022-08-21T17:16:54;26.00;36.90
46752;DHT22;32497;48.936;9.270;2022-08-21T17:21:57;25.90;35.30
46752;DHT22;32497;48.936;9.270;2022-08-21T17:26:58;25.70;37.10
46752;DHT22;32497;48.936;9.270;2022-08-21T17:32:00;25.70;38.40
46752;DHT22;32497;48.936;9.270;2022-08-21T17:37:03;25.40;38.20
46752;DHT22;32497;48.936;9.270;2022-08-21T17:42:07;25.20;38.40
46752;DHT22;32497;48.936;9.270;2022-08-21T17:47:09;25.20;37.20
46752;DHT22;32497;48.936;9.270;2022-08-21T17:52:12;25.00;37.40
46752;DHT22;32497;48.936;9.270;2022-08-21T17:57:17;24.80;39.40
46752;DHT22;32497;48.936;9.270;2022-08-21T18:02:19;24.60;40.00
46752;DHT22;32497;48.936;9.270;2022-08-21T18:07:22;24.30;40.90
46752;DHT22;32497;48.936;9.270;2022-08-21T18:12:23;24.20;41.90
46752;DHT22;32497;48.936;9.270;2022-08-21T18:17:25;23.90;40.20
46752;DHT22;32497;48.936;9.270;2022-08-21T18:22:28;23.80;41.80
46752;DHT22;32497;48.936;9.270;2022-08-21T18:27:29;23.70;41.90
46752;DHT22;32497;48.936;9.270;2022-08-21T18:32:31;23.50;41.80
46752;DHT22;32497;48.936;9.270;2022-08-21T18:37:33;23.40;40.90
46752;DHT22;32497;48.936;9.270;2022-08-21T18:42:37;23.20;42.20
46752;DHT22;32497;48.936;9.270;2022-08-21T18:47:40;23.10;41.50
46752;DHT22;32497;48.936;9.270;2022-08-21T18:52:43;23.00;41.20
46752;DHT22;32497;48.936;9.270;2022-08-21T18:57:45;22.90;42.80
46752;DHT22;32497;48.936;9.270;2022-08-21T19:02:46;22.80;42.90
46752;DHT22;32497;48.936;9.270;2022-08-21T19:07:49;22.70;43.00
46752;DHT22;32497;48.936;9.270;2022-08-21T19:12:50;22.70;44.60
46752;DHT22;32497;48.936;9.270;2022-08-21T19:17:52;22.50;45.40
46752;DHT22;32497;48.936;9.270;2022-08-21T19:22:55;22.40;45.50
46752;DHT22;32497;48.936;9.270;2022-08-21T19:27:56;22.30;46.40
46752;DHT22;32497;48.936;9.270;2022-08-21T19:32:57;22.20;46.00
46752;DHT22;32497;48.936;9.270;2022-08-21T19:38:00;22.20;46.60
46752;DHT22;32497;48.936;9.270;2022-08-21T19:43:01;22.10;47.30
46752;DHT22;32497;48.936;9.270;2022-08-21T19:48:03;21.90;46.50
46752;DHT22;32497;48.936;9.270;2022-08-21T19:53:05;21.60;48.10
46752;DHT22;32497;48.936;9.270;2022-08-21T19:58:08;21.20;49.40
46752;DHT22;32497;48.936;9.270;2022-08-21T20:03:14;20.90;48.40
46752;DHT22;32497;48.936;9.270;2022-08-21T20:08:16;20.70;49.70
46752;DHT22;32497;48.936;9.270;2022-08-21T20:13:18;20.50;49.40
46752;DHT22;32497;48.936;9.270;2022-08-21T20:18:19;20.30;49.50
46752;DHT22;32497;48.936;9.270;2022-08-21T20:23:22;20.20;50.50
46752;DHT22;32497;48.936;9.270;2022-08-21T20:28:23;20.00;49.50
46752;DHT22;32497;48.936;9.270;2022-08-21T20:33:24;19.90;50.30
46752;DHT22;32497;48.936;9.270;2022-08-21T20:38:27;19.70;49.60
46752;DHT22;32497;48.936;9.270;2022-08-21T20:43:28;19.70;47.60
46752;DHT22;32497;48.936;9.270;2022-08-21T20:48:33;19.70;48.20
46752;DHT22;32497;48.936;9.270;2022-08-21T20:53:43;19.70;47.00
46752;DHT22;32497;48.936;9.270;2022-08-21T20:58:51;19.80;48.70
46752;DHT22;32497;48.936;9.270;2022-08-21T21:04:02;19.60;49.00
46752;DHT22;32497;48.936;9.270;2022-08-21T21:09:09;19.30;48.90
46752;DHT22;32497;48.936;9.270;2022-08-21T21:14:13;19.20;49.20
46752;DHT22;32497;48.936;9.270;2022-08-21T21:19:29;19.10;50.70
46752;DHT22;32497;48.936;9.270;2022-08-21T21:24:38;19.00;51.30
46752;DHT22;32497;48.936;9.270;2022-08-21T21:29:44;18.80;52.50
46752;DHT22;32497;48.936;9.270;2022-08-21T21:34:46;18.80;54.50
46752;DHT22;32497;48.936;9.270;2022-08-21T21:39:54;18.70;55.60
46752;DHT22;32497;48.936;9.270;2022-08-21T21:45:09;18.70;55.60
46752;DHT22;32497;48.936;9.270;2022-08-21T21:50:26;18.40;54.30
46752;DHT22;32497;48.936;9.270;2022-08-21T21:55:48;18.30;55.30
46752;DHT22;32497;48.936;9.270;2022-08-21T22:00:58;18.20;55.20
46752;DHT22;32497;48.936;9.270;2022-08-21T22:06:07;18.10;54.80
46752;DHT22;32497;48.936;9.270;2022-08-21T22:11:16;18.30;54.10
46752;DHT22;32497;48.936;9.270;2022-08-21T22:16:20;18.20;54.60
46752;DHT22;32497;48.936;9.270;2022-08-21T22:21:26;18.20;54.10
46752;DHT22;32497;48.936;9.270;2022-08-21T22:26:35;18.20;54.60
46752;DHT22;32497;48.936;9.270;2022-08-21T22:31:37;18.10;54.90
46752;DHT22;32497;48.936;9.270;2022-08-21T22:36:41;18.20;55.80
46752;DHT22;32497;48.936;9.270;2022-08-21T22:41:46;18.00;55.50
46752;DHT22;32497;48.936;9.270;2022-08-21T22:46:50;17.70;57.60
46752;DHT22;32497;48.936;9.270;2022-08-21T22:51:56;17.60;60.10
46752;DHT22;32497;48.936;9.270;2022-08-21T22:57:09;17.50;59.80
46752;DHT22;32497;48.936;9.270;2022-08-21T23:02:24;17.30;60.40
46752;DHT22;32497;48.936;9.270;2022-08-21T23:07:32;17.40;60.00
46752;DHT22;32497;48.936;9.270;2022-08-21T23:12:37;17.50;61.20
46752;DHT22;32497;48.936;9.270;2022-08-21T23:17:47;17.60;61.60
46752;DHT22;32497;48.936;9.270;2022-08-21T23:22:54;17.60;62.20
46752;DHT22;32497;48.936;9.270;2022-08-21T23:28:05;17.30;63.40
46752;DHT22;32497;48.936;9.270;2022-08-21T23:33:22;17.20;64.50
46752;DHT22;32497;48.936;9.270;2022-08-21T23:38:33;17.00;65.10
46752;DHT22;32497;48.936;9.270;2022-08-21T23:43:47;16.90;65.60
46752;DHT22;32497;48.936;9.270;2022-08-21T23:48:54;16.90;66.00
46752;DHT22;32497;48.936;9.270;2022-08-21T23:54:03;16.80;65.40
46752;DHT22;32497;48.936;9.270;2022-08-21T23:59:14;16.70;66.00
